Time;durP1;ratioP1;P1;durP2;ratioP2;P2;SDS_P1;SDS_P2;PMS_P1;PMS_P2;Temp;Humidity;BMP_temperature;BMP_pressure;BME280_temperature;BME280_humidity;BME280_pressure;Samples;Min_cycle;Max_cycle;Signal;HPM_P1;HPM_P2
2023/11/09 00:00:44;;;;;;;7.32;5.90;;;10.10;99.90;;;;;;5058143;28;20075;-81
2023/11/09 00:03:10;;;;;;;6.05;4.38;;;10.10;99.90;;;;;;5094414;27;20553;-82
2023/11/09 00:05:36;;;;;;;6.03;4.80;;;10.00;99.90;;;;;;5056402;28;20131;-83
2023/11/09 00:08:05;;;;;;;6.20;5.40;;;10.10;99.90;;;;;;5068400;28;20063;-83
2023/11/09 00:10:31;;;;;;;5.38;4.53;;;10.20;99.90;;;;;;5103167;28;20052;-83
2023/11/09 00:12:58;;;;;;;5.13;4.63;;;10.10;99.90;;;;;;5069393;28;20059;-82
2023/11/09 00:15:26;;;;;;;4.95;4.30;;;10.10;99.90;;;;;;5062786;28;20185;-82
2023/11/09 00:17:52;;;;;;;7.88;6.38;;;10.10;99.90;;;;;;5066075;28;20049;-82
2023/11/09 00:20:20;;;;;;;6.68;4.85;;;10.10;99.90;;;;;;5072079;28;20066;-82
2023/11/09 00:22:47;;;;;;;5.72;5.07;;;10.20;99.90;;;;;;5082028;28;20048;-81
2023/11/09 00:25:13;;;;;;;5.15;4.60;;;10.20;99.90;;;;;;5059890;28;20124;-83
2023/11/09 00:27:39;;;;;;;5.53;4.50;;;10.10;99.90;;;;;;5074482;28;20123;-82
2023/11/09 00:30:06;;;;;;;6.55;5.18;;;10.20;99.90;;;;;;5092881;28;20389;-83
2023/11/09 00:32:33;;;;;;;6.53;4.40;;;10.20;99.90;;;;;;5081838;28;20044;-82
2023/11/09 00:35:01;;;;;;;9.68;5.15;;;10.10;99.90;;;;;;5095232;28;20524;-81
2023/11/09 00:37:28;;;;;;;7.05;4.47;;;10.10;99.90;;;;;;5052857;28;20040;-81
2023/11/09 00:39:55;;;;;;;4.93;4.43;;;10.10;99.90;;;;;;5098124;28;20495;-82
2023/11/09 00:42:24;;;;;;;4.63;4.03;;;10.10;99.90;;;;;;5080857;28;20432;-81
2023/11/09 00:44:50;;;;;;;4.55;3.58;;;10.20;99.90;;;;;;5079308;28;20337;-81
2023/11/09 00:47:15;;;;;;;7.97;6.05;;;10.10;99.90;;;;;;5067891;28;20040;-81
2023/11/09 00:49:41;;;;;;;3.83;3.42;;;10.10;99.90;;;;;;5072637;28;20376;-81
2023/11/09 00:52:07;;;;;;;4.63;4.00;;;10.10;99.90;;;;;;5059583;28;20043;-81
2023/11/09 00:54:36;;;;;;;6.53;4.03;;;10.10;99.90;;;;;;5073497;28;20113;-81
2023/11/09 00:57:02;;;;;;;4.78;3.97;;;10.10;99.90;;;;;;5068595;28;20048;-80
2023/11/09 00:59:27;;;;;;;3.95;3.53;;;10.10;99.90;;;;;;5075464;28;20138;-80
2023/11/09 01:01:53;;;;;;;4.93;4.13;;;10.10;99.90;;;;;;5062442;28;20138;-81
2023/11/09 01:04:19;;;;;;;4.57;3.70;;;10.10;99.90;;;;;;5071999;28;20044;-81
2023/11/09 01:06:45;;;;;;;4.15;3.30;;;10.10;99.90;;;;;;5069634;28;20044;-78
2023/11/09 01:09:11;;;;;;;5.68;3.30;;;10.20;99.90;;;;;;5060319;28;20044;-78
2023/11/09 01:11:40;;;;;;;3.80;3.33;;;10.20;99.90;;;;;;5089865;28;20109;-78
2023/11/09 01:14:06;;;;;;;3.55;3.15;;;10.20;99.90;;;;;;5079199;28;20082;-78
2023/11/09 01:16:35;;;;;;;6.25;3.10;;;10.10;99.90;;;;;;5069637;28;20098;-77
2023/11/09 01:19:02;;;;;;;4.13;3.08;;;10.20;99.90;;;;;;5068482;28;20067;-78
2023/11/09 01:21:30;;;;;;;3.78;3.20;;;10.20;99.90;;;;;;5079192;28;20109;-81
2023/11/09 01:23:58;;;;;;;5.30;3.67;;;10.20;99.90;;;;;;5073110;28;20040;-82
2023/11/09 01:26:25;;;;;;;3.90;3.22;;;10.20;99.90;;;;;;5077191;28;20482;-81
2023/11/09 01:28:50;;;;;;;4.40;3.25;;;10.20;99.90;;;;;;5046446;28;20222;-82
2023/11/09 01:31:17;;;;;;;3.88;3.38;;;10.20;99.90;;;;;;5067610;28;20168;-82
2023/11/09 01:33:43;;;;;;;3.83;3.15;;;10.20;99.90;;;;;;5063561;28;20043;-82
2023/11/09 01:36:09;;;;;;;5.93;3.47;;;10.20;99.90;;;;;;5069121;28;20053;-83
2023/11/09 01:38:35;;;;;;;5.40;3.60;;;10.20;99.90;;;;;;5071519;28;20049;-82
2023/11/09 01:41:06;;;;;;;5.07;3.78;;;10.20;99.90;;;;;;5088948;28;20579;-82
2023/11/09 01:43:32;;;;;;;4.43;3.78;;;10.20;99.90;;;;;;5071002;28;20040;-82
2023/11/09 01:45:57;;;;;;;4.50;3.53;;;10.20;99.90;;;;;;5057610;28;20467;-82
2023/11/09 01:48:28;;;;;;;5.75;3.83;;;10.20;99.90;;;;;;5062768;28;20044;-81
2023/11/09 01:50:54;;;;;;;4.75;3.70;;;10.20;99.90;;;;;;5072837;28;20045;-82
2023/11/09 01:53:20;;;;;;;4.68;4.18;;;10.20;99.90;;;;;;5061817;28;20040;-81
2023/11/09 01:55:46;;;;;;;5.53;4.20;;;10.20;99.90;;;;;;5062347;28;20109;-82
2023/11/09 01:58:13;;;;;;;4.13;3.72;;;10.20;99.90;;;;;;5060592;28;20543;-77
2023/11/09 02:00:42;;;;;;;4.82;4.15;;;10.20;99.90;;;;;;5101073;27;20439;-77
2023/11/09 02:03:08;;;;;;;5.68;3.97;;;10.20;99.90;;;;;;5053353;28;20514;-78
2023/11/09 02:05:37;;;;;;;4.13;3.60;;;10.20;99.90;;;;;;5061252;28;20490;-77
2023/11/09 02:08:04;;;;;;;4.55;3.58;;;10.20;99.90;;;;;;5078974;28;20075;-78
2023/11/09 02:10:32;;;;;;;3.80;3.33;;;10.20;99.90;;;;;;5067306;28;20043;-78
2023/11/09 02:12:58;;;;;;;3.50;2.95;;;10.20;99.90;;;;;;5067626;28;20070;-78
2023/11/09 02:15:25;;;;;;;5.47;3.50;;;10.20;99.90;;;;;;5065359;28;20051;-78
2023/11/09 02:17:53;;;;;;;3.47;3.15;;;10.20;99.90;;;;;;5064636;28;20064;-78
2023/11/09 02:20:21;;;;;;;4.22;3.22;;;10.10;99.90;;;;;;5082748;28;20032;-78
2023/11/09 02:22:48;;;;;;;3.72;2.72;;;10.20;99.90;;;;;;5065455;28;20100;-78
2023/11/09 02:25:15;;;;;;;5.15;3.60;;;10.20;99.90;;;;;;5063379;28;20033;-78
2023/11/09 02:27:41;;;;;;;6.25;4.07;;;10.20;99.90;;;;;;5082949;28;20369;-78
2023/11/09 02:30:07;;;;;;;4.45;3.55;;;10.20;99.90;;;;;;5082480;28;20036;-78
2023/11/09 02:32:33;;;;;;;4.18;3.72;;;10.20;99.90;;;;;;5080276;28;20121;-78
2023/11/09 02:35:01;;;;;;;4.45;3.42;;;10.10;99.90;;;;;;5069716;28;20510;-78
2023/11/09 02:37:27;;;;;;;4.18;3.78;;;10.20;99.90;;;;;;5061190;28;20051;-78
2023/11/09 02:39:53;;;;;;;4.75;3.97;;;10.20;99.90;;;;;;5084544;28;20169;-78
2023/11/09 02:42:22;;;;;;;6.18;5.10;;;10.10;99.90;;;;;;5066651;28;20398;-78
2023/11/09 02:44:49;;;;;;;4.75;4.20;;;10.20;99.90;;;;;;5082326;28;20040;-78
2023/11/09 02:47:14;;;;;;;5.18;4.55;;;10.20;99.90;;;;;;5080714;28;20038;-77
2023/11/09 02:49:43;;;;;;;5.72;5.07;;;10.20;99.90;;;;;;5062780;28;20036;-78
2023/11/09 02:52:10;;;;;;;6.15;4.85;;;10.20;99.90;;;;;;5082602;28;20441;-78
2023/11/09 02:54:37;;;;;;;4.78;4.03;;;10.20;99.90;;;;;;5080514;28;21145;-77
2023/11/09 02:57:06;;;;;;;5.13;4.60;;;10.20;99.90;;;;;;5075895;28;20059;-77
2023/11/09 02:59:32;;;;;;;5.83;5.13;;;10.20;99.90;;;;;;5056866;28;20041;-77
2023/11/09 03:01:58;;;;;;;6.15;5.03;;;10.20;99.90;;;;;;5064870;28;20300;-78
2023/11/09 03:04:24;;;;;;;5.60;5.10;;;10.20;99.90;;;;;;5057975;28;20043;-78
2023/11/09 03:06:49;;;;;;;5.15;4.32;;;10.20;99.90;;;;;;5053801;28;20083;-78
2023/11/09 03:09:18;;;;;;;8.10;4.70;;;10.20;99.90;;;;;;5062256;28;20152;-78
2023/11/09 03:11:44;;;;;;;5.35;4.22;;;10.20;99.90;;;;;;5077318;28;20039;-78
2023/11/09 03:14:10;;;;;;;4.97;4.18;;;10.20;99.90;;;;;;5078731;28;20028;-78
2023/11/09 03:16:36;;;;;;;4.10;3.70;;;10.20;99.90;;;;;;5075756;28;20052;-79
2023/11/09 03:19:03;;;;;;;6.00;5.30;;;10.10;99.90;;;;;;5052742;28;20059;-79
2023/11/09 03:21:31;;;;;;;5.30;4.28;;;10.20;99.90;;;;;;5055804;28;20060;-78
2023/11/09 03:23:57;;;;;;;5.20;4.60;;;10.20;99.90;;;;;;5064809;28;20055;-78
2023/11/09 03:26:23;;;;;;;4.72;4.22;;;10.10;99.90;;;;;;5056974;28;20141;-77
2023/11/09 03:28:49;;;;;;;5.57;4.65;;;10.20;99.90;;;;;;5072019;28;20032;-78
2023/11/09 03:31:15;;;;;;;4.03;3.63;;;10.20;99.90;;;;;;5060557;28;20050;-78
2023/11/09 03:33:41;;;;;;;4.32;3.75;;;10.20;99.90;;;;;;5061673;28;20063;-78
2023/11/09 03:36:07;;;;;;;5.10;4.45;;;10.20;99.90;;;;;;5077296;28;20052;-78
2023/11/09 03:38:33;;;;;;;4.82;4.35;;;10.20;99.90;;;;;;5054152;28;20051;-77
2023/11/09 03:40:59;;;;;;;6.32;4.63;;;10.20;99.90;;;;;;5054110;28;20043;-78
2023/11/09 03:43:27;;;;;;;4.75;4.35;;;10.20;99.90;;;;;;5072170;28;20041;-78
2023/11/09 03:45:53;;;;;;;4.78;3.90;;;10.20;99.90;;;;;;5075988;28;20036;-77
2023/11/09 03:48:19;;;;;;;4.00;3.60;;;10.10;99.90;;;;;;5095719;28;20097;-78
2023/11/09 03:50:45;;;;;;;4.45;4.05;;;10.20;99.90;;;;;;5074811;28;20036;-78
2023/11/09 03:53:11;;;;;;;4.60;3.70;;;10.20;99.90;;;;;;5079872;28;20040;-78
2023/11/09 03:55:36;;;;;;;5.68;4.15;;;10.10;99.90;;;;;;5079081;28;20615;-78
2023/11/09 03:58:03;;;;;;;3.83;3.42;;;10.20;99.90;;;;;;5067605;28;20048;-78
2023/11/09 04:00:29;;;;;;;6.07;4.20;;;10.20;99.90;;;;;;5054602;28;20458;-78
2023/11/09 04:02:55;;;;;;;5.38;4.20;;;10.10;99.90;;;;;;5077521;28;20147;-79
2023/11/09 04:05:22;;;;;;;5.22;3.97;;;10.20;99.90;;;;;;5106457;28;20071;-78
2023/11/09 04:07:48;;;;;;;5.43;4.18;;;10.20;99.90;;;;;;5058307;28;20467;-78
2023/11/09 04:10:16;;;;;;;4.43;4.00;;;10.20;99.90;;;;;;5065385;28;20124;-78
2023/11/09 04:12:45;;;;;;;5.35;3.25;;;10.20;99.90;;;;;;5080077;28;20040;-78
2023/11/09 04:15:11;;;;;;;4.82;4.03;;;10.20;99.90;;;;;;5086966;28;20123;-78
2023/11/09 04:17:37;;;;;;;6.30;4.15;;;10.20;99.90;;;;;;5081974;28;20102;-78
2023/11/09 04:24:05;;;;;;;5.15;3.80;;;10.20;99.90;;;;;;5267060;22;20081;-78
2023/11/09 04:26:32;;;;;;;6.10;4.47;;;10.20;99.90;;;;;;5011269;22;20057;-78
2023/11/09 04:28:59;;;;;;;5.90;4.78;;;10.20;99.90;;;;;;4970154;28;20127;-77
2023/11/09 04:31:26;;;;;;;5.68;4.82;;;10.20;99.90;;;;;;4982392;28;20137;-77
2023/11/09 04:33:58;;;;;;;5.45;4.95;;;10.20;99.90;;;;;;4988835;28;20053;-77
2023/11/09 04:36:24;;;;;;;6.38;5.60;;;10.20;99.90;;;;;;4973854;28;20532;-77
2023/11/09 04:38:52;;;;;;;6.65;6.00;;;10.20;99.90;;;;;;4986484;28;20880;-78
2023/11/09 04:41:21;;;;;;;7.47;6.65;;;10.20;99.90;;;;;;4971314;28;20041;-77
2023/11/09 04:43:51;;;;;;;8.45;7.03;;;10.20;99.90;;;;;;4973831;28;20042;-77
2023/11/09 04:46:20;;;;;;;8.10;7.30;;;10.20;99.90;;;;;;4974491;28;20045;-77
2023/11/09 04:48:55;;;;;;;9.18;7.22;;;10.20;99.90;;;;;;4992618;28;20057;-78
2023/11/09 04:51:22;;;;;;;7.47;6.68;;;10.20;99.90;;;;;;4973635;28;20073;-77
2023/11/09 04:53:52;;;;;;;9.55;8.23;;;10.20;99.90;;;;;;4975761;28;20497;-77
2023/11/09 05:07:24;;;;;;;9.63;8.65;;;10.30;99.90;;;;;;4989790;28;20505;-77
2023/11/09 05:09:50;;;;;;;10.45;9.35;;;10.30;99.90;;;;;;4970929;28;20108;-77
2023/11/09 05:12:20;;;;;;;19.92;11.60;;;10.30;99.90;;;;;;4989289;28;20041;-77
2023/11/09 05:14:49;;;;;;;11.65;10.10;;;10.30;99.90;;;;;;4986590;28;20046;-77
2023/11/09 05:17:15;;;;;;;13.48;11.63;;;10.30;99.90;;;;;;4981443;28;20073;-77
2023/11/09 05:19:43;;;;;;;14.82;12.13;;;10.30;99.90;;;;;;4966740;28;20489;-77
2023/11/09 05:22:09;;;;;;;10.80;9.70;;;10.30;99.90;;;;;;4973703;28;20108;-77
2023/11/09 05:24:42;;;;;;;12.40;11.05;;;10.30;99.90;;;;;;4985956;28;20049;-78
2023/11/09 05:27:08;;;;;;;14.98;11.82;;;10.40;99.90;;;;;;4986290;28;20385;-77
2023/11/09 05:29:35;;;;;;;12.55;11.35;;;10.40;99.90;;;;;;4971623;28;20038;-77
2023/11/09 05:32:06;;;;;;;14.60;13.07;;;10.40;99.90;;;;;;4992253;28;20084;-77
2023/11/09 05:34:33;;;;;;;16.35;14.52;;;10.40;99.90;;;;;;4970169;28;20049;-77
2023/11/09 05:36:59;;;;;;;15.30;13.88;;;10.40;99.90;;;;;;4975782;28;20143;-77
2023/11/09 05:39:27;;;;;;;15.35;13.85;;;10.40;99.90;;;;;;4972211;28;20531;-77
2023/11/09 05:41:56;;;;;;;23.30;15.90;;;10.40;99.90;;;;;;4974320;28;20057;-77
2023/11/09 05:44:22;;;;;;;16.55;14.40;;;10.40;99.90;;;;;;4973890;28;20049;-77
2023/11/09 05:46:51;;;;;;;13.77;12.38;;;10.40;99.90;;;;;;4975152;28;20112;-77
2023/11/09 05:49:20;;;;;;;13.55;12.15;;;10.40;99.90;;;;;;4973605;28;20397;-77
2023/11/09 05:51:47;;;;;;;14.93;12.20;;;10.40;99.90;;;;;;4990070;28;20137;-77
2023/11/09 05:54:19;;;;;;;12.13;10.73;;;10.40;99.90;;;;;;4974488;28;20038;-77
2023/11/09 05:56:46;;;;;;;11.68;10.20;;;10.40;99.90;;;;;;4967993;28;20045;-77
2023/11/09 05:59:12;;;;;;;11.60;9.57;;;10.40;99.90;;;;;;4990332;28;20101;-77
2023/11/09 06:01:39;;;;;;;12.05;9.88;;;10.30;99.90;;;;;;4968832;28;20049;-77
2023/11/09 06:04:05;;;;;;;12.10;9.75;;;10.30;99.90;;;;;;4985687;28;20070;-77
2023/11/09 06:06:31;;;;;;;12.65;9.93;;;10.30;99.90;;;;;;4979996;28;20042;-77
2023/11/09 06:08:59;;;;;;;13.82;10.27;;;10.30;99.90;;;;;;4989955;28;20088;-77
2023/11/09 06:11:25;;;;;;;14.77;9.75;;;10.30;99.90;;;;;;4986551;28;20043;-77
2023/11/09 06:13:54;;;;;;;17.42;9.48;;;10.30;99.90;;;;;;4990250;28;20049;-78
2023/11/09 06:16:21;;;;;;;13.73;8.25;;;10.30;99.90;;;;;;4972612;28;20133;-77
2023/11/09 06:18:50;;;;;;;12.20;7.43;;;10.30;99.90;;;;;;4989808;28;20412;-81
2023/11/09 06:21:21;;;;;;;18.23;8.75;;;10.30;99.90;;;;;;4971042;28;20136;-81
2023/11/09 06:23:46;;;;;;;19.70;8.40;;;10.20;99.90;;;;;;4973508;28;20065;-81
2023/11/09 06:26:14;;;;;;;23.38;8.20;;;10.20;99.90;;;;;;4965906;28;20049;-81
2023/11/09 06:28:40;;;;;;;21.15;7.45;;;10.20;99.90;;;;;;4973046;28;20073;-80
2023/11/09 06:31:06;;;;;;;31.45;7.05;;;10.20;99.90;;;;;;4968937;28;20053;-81
2023/11/09 06:33:33;;;;;;;16.80;5.88;;;10.10;99.90;;;;;;4987829;28;20145;-80
2023/11/09 06:35:59;;;;;;;27.27;6.50;;;10.10;99.90;;;;;;4984751;28;20058;-81
2023/11/09 06:38:25;;;;;;;15.30;5.45;;;10.00;99.90;;;;;;4972201;28;20060;-82
2023/11/09 06:40:51;;;;;;;14.60;4.55;;;10.00;99.90;;;;;;4970594;28;20050;-80
2023/11/09 06:43:17;;;;;;;19.85;5.45;;;9.90;99.90;;;;;;4987786;28;20463;-82
2023/11/09 06:45:43;;;;;;;23.15;5.38;;;9.90;99.90;;;;;;4974291;28;20049;-82
2023/11/09 06:48:09;;;;;;;35.58;6.30;;;10.00;99.90;;;;;;4970168;28;20042;-80
2023/11/09 06:50:35;;;;;;;36.95;6.30;;;9.80;99.90;;;;;;4970149;28;20042;-81
2023/11/09 06:53:01;;;;;;;27.48;5.20;;;9.80;99.90;;;;;;4972519;28;20756;-82
2023/11/09 06:55:28;;;;;;;53.13;6.88;;;9.70;99.90;;;;;;4994984;28;20065;-83
2023/11/09 06:57:54;;;;;;;37.80;5.90;;;9.70;99.90;;;;;;4973044;28;20041;-83
2023/11/09 07:00:24;;;;;;;24.17;5.82;;;9.70;99.90;;;;;;4994739;28;20048;-78
2023/11/09 07:02:50;;;;;;;19.85;4.93;;;9.70;99.90;;;;;;4997862;28;20526;-78
2023/11/09 07:05:16;;;;;;;27.23;5.88;;;9.60;99.90;;;;;;4972590;28;20068;-79
2023/11/09 07:07:42;;;;;;;22.98;5.07;;;9.60;99.90;;;;;;4987666;28;20077;-79
2023/11/09 07:10:08;;;;;;;16.48;5.35;;;9.60;99.90;;;;;;4987438;28;20520;-78
2023/11/09 07:12:35;;;;;;;18.05;5.18;;;9.50;99.90;;;;;;4976893;28;20128;-78
2023/11/09 07:15:01;;;;;;;20.17;4.50;;;9.50;99.90;;;;;;4993271;28;20041;-78
2023/11/09 07:17:28;;;;;;;21.10;5.18;;;9.50;99.90;;;;;;4977759;28;20046;-79
2023/11/09 07:19:53;;;;;;;15.43;4.20;;;9.50;99.90;;;;;;4985110;28;20714;-79
2023/11/09 07:22:22;;;;;;;17.27;4.50;;;9.40;99.90;;;;;;4975999;28;20100;-79
2023/11/09 07:24:56;;;;;;;21.63;5.20;;;9.40;99.90;;;;;;4976302;28;20042;-79
2023/11/09 07:27:23;;;;;;;16.40;4.10;;;9.40;99.90;;;;;;4971215;28;20057;-78
2023/11/09 07:29:49;;;;;;;13.75;3.80;;;9.40;99.90;;;;;;4968334;28;20050;-82
2023/11/09 07:32:14;;;;;;;18.63;4.45;;;9.40;99.90;;;;;;4991760;28;20053;-82
2023/11/09 07:34:44;;;;;;;15.75;3.47;;;9.40;99.90;;;;;;4973842;28;20069;-82
2023/11/09 07:37:13;;;;;;;25.48;5.43;;;9.40;99.90;;;;;;4969079;28;20056;-82
2023/11/09 07:39:40;;;;;;;22.02;4.93;;;9.30;99.90;;;;;;4973817;28;20042;-82
2023/11/09 07:42:06;;;;;;;26.98;5.70;;;9.40;99.90;;;;;;4971121;28;20081;-81
2023/11/09 07:44:33;;;;;;;26.20;5.45;;;9.30;99.90;;;;;;4984604;28;20054;-82
2023/11/09 07:46:59;;;;;;;23.13;5.53;;;9.40;99.90;;;;;;4972042;28;20060;-82
2023/11/09 07:49:29;;;;;;;16.50;4.95;;;9.40;99.90;;;;;;4984176;28;20046;-82
2023/11/09 07:51:55;;;;;;;21.08;5.07;;;9.40;99.90;;;;;;4989174;28;20057;-82
2023/11/09 07:54:21;;;;;;;18.10;4.80;;;9.30;99.90;;;;;;4986613;28;20034;-82
2023/11/09 07:56:50;;;;;;;17.52;5.75;;;9.30;99.90;;;;;;4974477;28;20253;-82
2023/11/09 07:59:16;;;;;;;18.90;4.57;;;9.30;99.90;;;;;;4965948;28;20038;-82
2023/11/09 08:01:43;;;;;;;16.98;4.40;;;9.30;99.90;;;;;;4986719;28;20042;-82
2023/11/09 08:04:09;;;;;;;19.20;4.82;;;9.30;99.90;;;;;;4972703;28;20133;-82
2023/11/09 08:06:37;;;;;;;14.60;4.07;;;9.30;99.90;;;;;;4971059;28;20042;-82
2023/11/09 08:09:05;;;;;;;21.98;4.68;;;9.30;99.90;;;;;;4974117;28;20042;-83
2023/11/09 08:11:32;;;;;;;19.90;4.93;;;9.30;99.90;;;;;;4986044;28;20914;-81
2023/11/09 08:13:58;;;;;;;12.93;3.83;;;9.30;99.90;;;;;;4982547;28;20038;-81
2023/11/09 08:16:25;;;;;;;17.15;4.28;;;9.30;99.90;;;;;;4987829;28;20400;-82
2023/11/09 08:18:50;;;;;;;15.48;4.55;;;9.30;99.90;;;;;;4971920;28;20053;-82
2023/11/09 08:21:16;;;;;;;20.73;5.25;;;9.40;99.90;;;;;;4984144;28;20045;-82
2023/11/09 08:23:42;;;;;;;20.17;4.47;;;9.40;99.90;;;;;;4987532;28;20244;-82
2023/11/09 08:26:10;;;;;;;21.60;4.78;;;9.40;99.90;;;;;;4975944;28;20073;-82
2023/11/09 08:28:37;;;;;;;18.90;4.20;;;9.40;99.90;;;;;;4992485;28;20112;-82
2023/11/09 08:31:08;;;;;;;21.90;4.63;;;9.40;99.90;;;;;;4987524;28;20116;-82
2023/11/09 08:33:35;;;;;;;14.32;4.22;;;9.40;99.90;;;;;;4991364;28;20104;-81
2023/11/09 08:36:04;;;;;;;15.57;3.65;;;9.50;99.90;;;;;;4974775;28;20038;-82
2023/11/09 08:38:34;;;;;;;17.58;4.45;;;9.50;99.90;;;;;;4992374;28;20492;-81
2023/11/09 08:41:05;;;;;;;21.55;4.60;;;9.50;99.90;;;;;;4988035;28;20153;-82
2023/11/09 08:43:35;;;;;;;17.58;4.30;;;9.60;99.90;;;;;;4992134;28;20497;-82
2023/11/09 08:46:04;;;;;;;17.25;4.43;;;9.70;99.90;;;;;;4973437;28;20519;-81
2023/11/09 08:48:33;;;;;;;13.43;4.18;;;9.70;99.90;;;;;;4975646;28;20045;-81
2023/11/09 08:51:02;;;;;;;15.73;4.93;;;9.70;99.90;;;;;;4974092;28;20049;-81
2023/11/09 08:53:31;;;;;;;12.82;4.10;;;9.70;99.90;;;;;;4991771;28;20037;-82
2023/11/09 08:56:01;;;;;;;15.02;4.35;;;9.70;99.90;;;;;;4965688;28;20046;-82
2023/11/09 08:58:28;;;;;;;15.23;4.68;;;9.60;99.90;;;;;;4971848;28;20042;-82
2023/11/09 09:00:54;;;;;;;11.65;4.35;;;9.60;99.90;;;;;;4973139;28;20490;-82
2023/11/09 09:03:23;;;;;;;11.45;4.15;;;9.60;99.90;;;;;;4992015;28;20057;-82
2023/11/09 09:05:52;;;;;;;12.57;5.45;;;9.60;99.90;;;;;;4973015;28;20073;-82
2023/11/09 09:08:20;;;;;;;13.35;4.80;;;9.60;99.90;;;;;;4974742;28;20056;-82
2023/11/09 09:10:46;;;;;;;14.65;5.28;;;9.60;99.90;;;;;;4990205;28;20081;-81
2023/11/09 09:13:12;;;;;;;14.18;4.45;;;9.70;99.90;;;;;;4975199;28;20041;-81
2023/11/09 09:15:39;;;;;;;12.23;5.13;;;9.70;99.90;;;;;;4970607;28;20038;-77
2023/11/09 09:18:09;;;;;;;14.25;4.80;;;9.80;99.90;;;;;;4984440;28;20132;-78
2023/11/09 09:20:35;;;;;;;12.73;4.75;;;9.80;99.90;;;;;;4972648;28;20388;-77
2023/11/09 09:23:04;;;;;;;9.90;5.30;;;9.80;99.90;;;;;;4981183;28;20058;-77
2023/11/09 09:25:30;;;;;;;15.35;5.85;;;9.80;99.90;;;;;;4989165;28;20481;-77
2023/11/09 09:27:56;;;;;;;15.38;6.90;;;9.80;99.90;;;;;;4990804;28;20132;-77
2023/11/09 09:30:24;;;;;;;14.50;6.88;;;9.90;99.90;;;;;;4991299;28;20038;-81
2023/11/09 09:32:55;;;;;;;15.77;8.00;;;9.90;99.90;;;;;;4988480;28;20065;-81
2023/11/09 09:35:20;;;;;;;27.52;10.95;;;10.00;99.90;;;;;;4982647;28;20074;-81
2023/11/09 09:37:48;;;;;;;14.63;9.45;;;10.00;99.90;;;;;;4988348;28;20077;-80
2023/11/09 09:40:15;;;;;;;29.70;11.32;;;10.00;99.90;;;;;;4987821;28;20542;-81
2023/11/09 09:42:46;;;;;;;19.70;11.15;;;10.00;99.90;;;;;;4990292;28;20459;-81
2023/11/09 09:45:22;;;;;;;16.63;10.50;;;10.00;99.90;;;;;;4990518;28;20510;-82
2023/11/09 09:47:50;;;;;;;19.83;10.00;;;10.10;99.90;;;;;;4990533;28;20400;-81
2023/11/09 09:50:26;;;;;;;17.08;9.75;;;10.10;99.90;;;;;;4974154;28;20056;-81
2023/11/09 09:52:55;;;;;;;20.02;10.10;;;10.20;99.90;;;;;;4988241;28;20137;-81
2023/11/09 09:55:27;;;;;;;19.88;10.77;;;10.20;99.90;;;;;;4965022;28;20046;-81
2023/11/09 09:57:59;;;;;;;21.33;11.32;;;10.30;99.90;;;;;;4989502;28;20125;-81
2023/11/09 10:00:28;;;;;;;21.60;10.35;;;10.30;99.90;;;;;;4989914;28;20056;-81
2023/11/09 10:02:56;;;;;;;21.88;10.80;;;10.30;99.90;;;;;;4990429;28;20137;-81
2023/11/09 10:05:27;;;;;;;21.40;10.70;;;10.30;99.90;;;;;;4975096;28;20049;-82
2023/11/09 10:08:14;;;;;;;19.65;9.35;;;10.30;99.90;;;;;;4973074;28;20046;-81
2023/11/09 10:10:44;;;;;;;19.48;9.40;;;10.30;99.90;;;;;;4961466;28;20104;-82
2023/11/09 10:13:13;;;;;;;13.65;8.50;;;10.20;99.90;;;;;;4974582;28;20081;-82
2023/11/09 10:15:43;;;;;;;16.15;8.60;;;10.20;99.90;;;;;;4972801;28;20046;-82
2023/11/09 10:18:11;;;;;;;14.07;8.57;;;10.20;99.90;;;;;;4970816;28;20058;-82
2023/11/09 10:20:37;;;;;;;15.48;8.32;;;10.30;99.90;;;;;;4969708;28;20046;-81
2023/11/09 10:23:05;;;;;;;14.73;7.85;;;10.30;99.90;;;;;;4989746;28;20053;-81
2023/11/09 10:25:32;;;;;;;13.93;7.47;;;10.30;99.90;;;;;;4988382;28;20045;-82
2023/11/09 10:28:00;;;;;;;16.95;7.10;;;10.20;99.90;;;;;;4973327;28;20528;-82
2023/11/09 10:30:28;;;;;;;14.60;6.95;;;10.30;99.90;;;;;;4971919;28;20643;-82
2023/11/09 10:33:21;;;;;;;16.27;7.40;;;10.30;99.90;;;;;;4971993;28;20046;-82
2023/11/09 10:35:52;;;;;;;15.55;6.43;;;10.40;99.90;;;;;;4985910;28;20062;-81
2023/11/09 10:38:20;;;;;;;20.05;6.70;;;10.40;99.90;;;;;;4977752;28;20054;-82
2023/11/09 10:40:48;;;;;;;16.98;6.07;;;10.50;99.90;;;;;;4985594;28;20096;-81
2023/11/09 10:43:15;;;;;;;14.73;6.28;;;10.50;99.90;;;;;;4972923;28;20101;-80
2023/11/09 10:45:43;;;;;;;16.38;6.30;;;10.60;99.90;;;;;;4972096;28;20054;-81
2023/11/09 10:48:17;;;;;;;17.50;6.50;;;10.60;99.90;;;;;;4996019;28;20071;-81
2023/11/09 10:50:55;;;;;;;13.93;5.45;;;10.70;99.90;;;;;;4971168;28;20042;-82
2023/11/09 10:53:21;;;;;;;17.42;5.82;;;10.70;99.90;;;;;;4970578;28;20050;-81
2023/11/09 10:55:59;;;;;;;18.85;5.82;;;10.70;99.90;;;;;;4995172;28;20049;-81
2023/11/09 10:58:25;;;;;;;15.65;4.97;;;10.70;99.90;;;;;;4973525;28;20556;-81
2023/11/09 11:00:59;;;;;;;12.55;4.60;;;10.80;99.90;;;;;;4987714;28;20100;-81
2023/11/09 11:03:38;;;;;;;13.93;4.57;;;10.80;99.90;;;;;;4987883;28;20132;-81
2023/11/09 11:06:05;;;;;;;15.75;5.38;;;10.80;99.90;;;;;;4988668;28;20088;-81
2023/11/09 11:08:38;;;;;;;17.83;4.63;;;10.80;99.90;;;;;;4973385;28;20049;-81
2023/11/09 11:11:09;;;;;;;14.98;4.97;;;10.80;99.90;;;;;;4981249;28;20408;-81
2023/11/09 11:13:40;;;;;;;16.73;5.22;;;10.80;99.90;;;;;;4988223;28;20053;-81
2023/11/09 11:16:32;;;;;;;13.85;4.32;;;10.80;99.90;;;;;;4965604;28;20053;-81
2023/11/09 11:19:06;;;;;;;14.93;4.85;;;10.80;99.90;;;;;;4968775;28;20045;-81
2023/11/09 11:21:41;;;;;;;17.92;4.53;;;10.80;99.90;;;;;;4974070;28;20522;-81
2023/11/09 11:24:16;;;;;;;14.57;4.35;;;10.80;99.90;;;;;;4986427;28;20140;-81
2023/11/09 11:27:37;;;;;;;15.50;4.78;;;10.80;99.90;;;;;;4981930;28;20046;-82
2023/11/09 11:30:26;;;;;;;18.15;4.75;;;10.80;99.90;;;;;;4905393;29;20142;-81
2023/11/09 11:32:55;;;;;;;18.27;5.32;;;10.80;99.90;;;;;;4968740;28;20069;-81
2023/11/09 11:35:48;;;;;;;15.50;4.10;;;10.80;99.90;;;;;;4990301;28;20500;-79
2023/11/09 11:38:14;;;;;;;14.90;3.70;;;10.80;99.90;;;;;;4988695;28;20524;-79
2023/11/09 11:40:40;;;;;;;17.45;4.45;;;10.80;99.90;;;;;;4987541;28;20584;-79
2023/11/09 11:43:08;;;;;;;18.05;4.30;;;10.80;99.90;;;;;;4973398;28;20092;-79
2023/11/09 11:45:40;;;;;;;17.10;4.45;;;10.80;99.90;;;;;;4978894;28;20082;-80
2023/11/09 11:48:19;;;;;;;16.05;4.10;;;10.80;99.90;;;;;;4972761;28;20053;-81
2023/11/09 11:50:45;;;;;;;16.45;4.40;;;10.80;99.90;;;;;;4972641;28;20034;-81
2023/11/09 11:53:25;;;;;;;14.50;4.00;;;10.90;99.90;;;;;;4989337;28;20046;-81
2023/11/09 11:56:05;;;;;;;18.47;4.00;;;10.90;99.90;;;;;;4987496;28;20505;-80
2023/11/09 11:59:00;;;;;;;19.33;4.50;;;10.90;99.90;;;;;;4993434;28;20392;-81
2023/11/09 12:01:29;;;;;;;14.02;3.95;;;10.90;99.90;;;;;;4973518;28;20057;-80
2023/11/09 12:04:00;;;;;;;20.80;4.82;;;10.90;99.90;;;;;;4989252;28;20563;-81
2023/11/09 12:06:30;;;;;;;18.63;4.78;;;10.90;99.90;;;;;;4977829;28;20610;-82
2023/11/09 12:08:58;;;;;;;15.20;4.82;;;10.80;99.90;;;;;;4991022;28;20085;-80
2023/11/09 12:11:33;;;;;;;12.50;4.13;;;10.90;99.90;;;;;;4987237;28;20056;-81
2023/11/09 12:14:04;;;;;;;12.00;4.45;;;10.90;99.90;;;;;;4974161;28;20077;-81
2023/11/09 12:16:31;;;;;;;18.77;4.85;;;10.90;99.90;;;;;;4975842;28;20089;-80
2023/11/09 12:18:57;;;;;;;20.70;4.63;;;10.90;99.90;;;;;;4982555;28;20133;-80
2023/11/09 12:21:30;;;;;;;15.02;5.22;;;10.90;99.90;;;;;;4977863;28;20042;-77
2023/11/09 12:23:57;;;;;;;15.95;5.00;;;10.90;99.90;;;;;;4976786;28;20172;-78
2023/11/09 12:26:32;;;;;;;14.50;4.00;;;10.80;99.90;;;;;;4993785;28;20124;-78
2023/11/09 12:29:00;;;;;;;16.88;4.70;;;10.90;99.90;;;;;;4977052;28;20053;-78
2023/11/09 12:31:30;;;;;;;16.67;4.55;;;10.80;99.90;;;;;;4977066;28;20060;-78
2023/11/09 12:34:06;;;;;;;12.02;4.15;;;10.80;99.90;;;;;;4990082;28;20038;-78
2023/11/09 12:36:35;;;;;;;14.75;4.00;;;10.80;99.90;;;;;;4994056;28;20049;-78
2023/11/09 12:39:15;;;;;;;15.93;5.03;;;10.80;99.90;;;;;;4991997;28;20060;-79
2023/11/09 12:41:40;;;;;;;15.38;3.97;;;10.80;99.90;;;;;;4992449;28;20508;-78
2023/11/09 12:44:08;;;;;;;14.02;3.80;;;10.80;99.90;;;;;;4991453;28;20080;-79
2023/11/09 12:46:36;;;;;;;13.20;3.55;;;10.80;99.90;;;;;;4993413;28;20117;-79
2023/11/09 12:49:07;;;;;;;15.90;3.72;;;10.80;99.90;;;;;;4991823;28;20061;-78
2023/11/09 12:51:38;;;;;;;10.70;3.08;;;10.80;99.90;;;;;;4978148;28;20044;-79
2023/11/09 12:54:04;;;;;;;13.05;4.30;;;10.80;99.90;;;;;;4996634;28;20493;-79
2023/11/09 12:56:29;;;;;;;14.82;4.00;;;10.80;99.90;;;;;;4976177;28;20077;-79
2023/11/09 12:58:57;;;;;;;11.98;3.58;;;10.80;99.90;;;;;;4973331;28;20050;-79
2023/11/09 13:01:23;;;;;;;12.30;4.30;;;10.80;99.90;;;;;;4994995;28;20045;-79
2023/11/09 13:03:50;;;;;;;16.23;5.22;;;10.80;99.90;;;;;;4987257;28;20050;-79